KUBE

Details ICAO KUBE
Name CUMBERLAND MUNI
Region United States
Timezone America/Chicago (UTC-6.0)
Plans Departing 1
Arriving 0
Stats Elevation 1,241 ft / 378 m (AMSL)
Location 45.506158° -91.980424°
Runways 2
Magnetic Variation 0.921° W
Sunrise 2017-12-18 13:44:48 UTC / 2017-12-18 07:44:48 Local
Sunset 2017-12-18 22:27:13 UTC / 2017-12-18 16:27:13 Local
Advertisement - Login to hide

Runways

ID Width Length Bearing (true) Bearing (mag) Surface Threshold Offset Overrun Length
09 75 ft / 23 m 4,039 ft / 1,231 m 90.41° 91.33° Asphalt 0 ft / 0 m 0 ft / 0 m
18 120 ft / 37 m 2,038 ft / 621 m 186.01° 186.93° Grass 0 ft / 0 m 0 ft / 0 m
27 75 ft / 23 m 4,039 ft / 1,231 m 270.42° 271.34° Asphalt 0 ft / 0 m 0 ft / 0 m
36 120 ft / 37 m 2,038 ft / 621 m 6.01° 6.93° Grass 0 ft / 0 m 0 ft / 0 m

Map

Weather


0- 5 10 15 20 25 30 35+ Temperature / ° C

Clouds and Precipitation
Forecast for 2017-12-18 12:00 UTC. Updated 2 hours ago

Ground ~20,000 ft ~40,000 ft Winds

METAR

KUBE 180855Z AUTO 23005KT 1SM BR OVC002 M04/M05 A2986 RMK AO2

TAF

Not found

Frequencies

Unicom 122.80 MHz CTAF/UNICOM
Warning: Do not use this data for real-world aviation or navigation. No guarantee of current accuracy is given.